ARN710 CYHZ-CYFC
Flight info
| Callsign | ARN710 |
|---|---|
| Flight time | N/A |
| Altitude | 32000 |
| Route | CYFC2 TUGUB Q864 DERDO Q806 TUKIR IMEBA9 |
| Aircraft | RJ1H/M-WX/S |
Departure
| Time | N/A |
|---|---|
| Airport | Halifax / Stanfield International Airport (CYHZ) |
Arrival
| Time | 2026-05-05 17:31 |
|---|---|
| Airport | Fredericton International Airport (CYFC) |
| Time | Latitude | Longitude | Altitude | Speed | Heading |
|---|---|---|---|---|---|
| 2026-05-05 17:31 | 45.87208 | -66.52963 | 86 ft | 0 kts | 86° |
| 2026-05-05 17:33 | 45.87208 | -66.52961 | 86 ft | 1 kts | 109° |
| 2026-05-05 17:34 | 45.87192 | -66.52947 | 60 ft | 6 kts | 150° |
| 2026-05-05 17:34 | 45.87154 | -66.52945 | 67 ft | 7 kts | 182° |
| 2026-05-05 17:34 | 45.87086 | -66.52952 | 63 ft | 10 kts | 186° |
| 2026-05-05 17:34 | 45.87023 | -66.52962 | 66 ft | 8 kts | 186° |
| 2026-05-05 17:35 | 45.86972 | -66.52969 | 59 ft | 7 kts | 186° |
| 2026-05-05 17:35 | 45.86909 | -66.52977 | 60 ft | 14 kts | 172° |
| 2026-05-05 17:35 | 45.86901 | -66.52875 | 58 ft | 14 kts | 69° |
| 2026-05-05 17:35 | 45.86947 | -66.52702 | 62 ft | 24 kts | 69° |
| 2026-05-05 17:36 | 45.87014 | -66.52461 | 66 ft | 26 kts | 62° |
| 2026-05-05 17:36 | 45.87047 | -66.52355 | 64 ft | 4 kts | 201° |
| 2026-05-05 17:36 | 45.87035 | -66.52377 | 66 ft | 8 kts | 233° |
| 2026-05-05 17:36 | 45.87021 | -66.52420 | 66 ft | 0 kts | 249° |
| 2026-05-05 17:37 | 45.87010 | -66.52459 | 66 ft | 25 kts | 249° |
| 2026-05-05 17:37 | 45.86927 | -66.52783 | 64 ft | 76 kts | 250° |
| 2026-05-05 17:37 | 45.86572 | -66.54176 | 210 ft | 133 kts | 245° |
| 2026-05-05 17:37 | 45.86306 | -66.55578 | 435 ft | 163 kts | 250° |
| 2026-05-05 17:38 | 45.85995 | -66.57299 | 753 ft | 195 kts | 251° |
| 2026-05-05 17:38 | 45.85631 | -66.59286 | 1449 ft | 216 kts | 248° |
| 2026-05-05 17:38 | 45.85290 | -66.61429 | 2324 ft | 234 kts | 262° |
| 2026-05-05 17:38 | 45.85496 | -66.63743 | 3649 ft | 233 kts | 270° |
| 2026-05-05 17:39 | 45.85680 | -66.66055 | 4772 ft | 235 kts | 268° |
| 2026-05-05 17:39 | 45.85857 | -66.68403 | 5831 ft | 239 kts | 270° |
| 2026-05-05 17:39 | 45.86079 | -66.70783 | 6829 ft | 242 kts | 272° |
| 2026-05-05 17:39 | 45.86330 | -66.73188 | 7804 ft | 245 kts | 273° |
| 2026-05-05 17:40 | 45.86598 | -66.75621 | 8748 ft | 249 kts | 274° |
| 2026-05-05 17:40 | 45.86879 | -66.78083 | 9692 ft | 252 kts | 275° |
| 2026-05-05 17:40 | 45.87171 | -66.80578 | 10494 ft | 256 kts | 275° |
| 2026-05-05 17:40 | 45.87477 | -66.83104 | 11282 ft | 259 kts | 275° |
| 2026-05-05 17:41 | 45.87773 | -66.85702 | 11831 ft | 271 kts | 275° |
| 2026-05-05 17:41 | 45.88091 | -66.88448 | 12148 ft | 288 kts | 276° |
| 2026-05-05 17:41 | 45.88427 | -66.91359 | 12393 ft | 303 kts | 276° |
| 2026-05-05 17:41 | 45.88777 | -66.94406 | 12608 ft | 316 kts | 276° |
| 2026-05-05 17:42 | 45.89140 | -66.97540 | 13051 ft | 320 kts | 276° |
| 2026-05-05 17:42 | 45.89499 | -67.00701 | 13518 ft | 323 kts | 275° |
| 2026-05-05 17:42 | 45.89852 | -67.03894 | 13958 ft | 324 kts | 275° |
| 2026-05-05 17:42 | 45.90200 | -67.07097 | 14389 ft | 326 kts | 275° |
| 2026-05-05 17:43 | 45.90538 | -67.10323 | 14820 ft | 327 kts | 275° |
| 2026-05-05 17:43 | 45.90885 | -67.13560 | 15243 ft | 330 kts | 275° |
| 2026-05-05 17:43 | 45.91246 | -67.16824 | 15642 ft | 332 kts | 275° |
| 2026-05-05 17:43 | 45.91596 | -67.20107 | 16047 ft | 334 kts | 275° |
| 2026-05-05 17:44 | 45.91945 | -67.23403 | 16464 ft | 335 kts | 275° |
| 2026-05-05 17:44 | 45.92295 | -67.26722 | 16862 ft | 337 kts | 275° |
| 2026-05-05 17:44 | 45.92659 | -67.30059 | 17251 ft | 339 kts | 275° |
| 2026-05-05 17:44 | 45.93017 | -67.33407 | 17681 ft | 340 kts | 275° |
| 2026-05-05 17:45 | 45.93380 | -67.36773 | 18006 ft | 343 kts | 275° |
| 2026-05-05 17:45 | 45.93626 | -67.39017 | 18233 ft | 344 kts | 275° |
| 2026-05-05 17:45 | 45.94000 | -67.42416 | 18566 ft | 345 kts | 275° |
| 2026-05-05 17:45 | 45.94377 | -67.45834 | 18890 ft | 347 kts | 275° |
| 2026-05-05 17:46 | 45.94732 | -67.49266 | 19203 ft | 348 kts | 274° |
| 2026-05-05 17:46 | 45.95082 | -67.52711 | 19502 ft | 350 kts | 274° |
| 2026-05-05 17:46 | 45.95453 | -67.56176 | 19805 ft | 352 kts | 275° |
| 2026-05-05 17:46 | 45.95815 | -67.59659 | 20104 ft | 353 kts | 274° |
| 2026-05-05 17:47 | 45.96170 | -67.63160 | 20395 ft | 355 kts | 274° |
| 2026-05-05 17:47 | 45.96526 | -67.66676 | 20683 ft | 356 kts | 274° |
| 2026-05-05 17:47 | 45.96902 | -67.70205 | 20978 ft | 358 kts | 274° |
| 2026-05-05 17:47 | 45.97269 | -67.73743 | 21337 ft | 358 kts | 274° |
| 2026-05-05 17:48 | 45.97589 | -67.77287 | 21623 ft | 357 kts | 269° |
| 2026-05-05 17:48 | 45.97534 | -67.80837 | 21887 ft | 355 kts | 263° |
| 2026-05-05 17:48 | 45.97302 | -67.84377 | 22144 ft | 356 kts | 261° |
| 2026-05-05 17:48 | 45.96998 | -67.87915 | 22417 ft | 357 kts | 260° |
| 2026-05-05 17:49 | 45.96667 | -67.91458 | 22681 ft | 358 kts | 260° |
| 2026-05-05 17:49 | 45.96346 | -67.94997 | 22942 ft | 360 kts | 260° |
| 2026-05-05 17:49 | 45.96023 | -67.98567 | 23190 ft | 361 kts | 260° |
| 2026-05-05 17:49 | 45.95702 | -68.02153 | 23417 ft | 362 kts | 260° |
| 2026-05-05 17:50 | 45.95380 | -68.05749 | 23629 ft | 363 kts | 260° |
| 2026-05-05 17:50 | 45.95056 | -68.09348 | 23839 ft | 364 kts | 260° |
| 2026-05-05 17:50 | 45.94730 | -68.12961 | 24033 ft | 365 kts | 260° |
| 2026-05-05 17:50 | 45.94400 | -68.16586 | 24248 ft | 366 kts | 260° |
| 2026-05-05 17:51 | 45.94072 | -68.20218 | 24450 ft | 367 kts | 260° |
| 2026-05-05 17:51 | 45.93744 | -68.23854 | 24707 ft | 366 kts | 260° |
| 2026-05-05 17:51 | 45.93424 | -68.27477 | 24957 ft | 366 kts | 261° |
| 2026-05-05 17:51 | 45.93141 | -68.30681 | 25164 ft | 365 kts | 260° |
| 2026-05-05 17:52 | 45.92817 | -68.34295 | 25396 ft | 365 kts | 261° |
| 2026-05-05 17:52 | 45.92493 | -68.37904 | 25606 ft | 365 kts | 260° |
| 2026-05-05 17:52 | 45.92168 | -68.41519 | 25801 ft | 365 kts | 260° |
| 2026-05-05 17:52 | 45.91842 | -68.45136 | 26021 ft | 365 kts | 260° |
| 2026-05-05 17:53 | 45.91523 | -68.48698 | 26243 ft | 364 kts | 260° |
| 2026-05-05 17:53 | 45.91198 | -68.52301 | 26480 ft | 364 kts | 260° |
| 2026-05-05 17:53 | 45.90873 | -68.55898 | 26709 ft | 363 kts | 260° |
| 2026-05-05 17:53 | 45.90548 | -68.59487 | 26932 ft | 362 kts | 260° |
| 2026-05-05 17:54 | 45.90224 | -68.63069 | 27246 ft | 360 kts | 260° |
| 2026-05-05 17:54 | 45.89904 | -68.66622 | 27504 ft | 359 kts | 260° |
| 2026-05-05 17:54 | 45.89586 | -68.70173 | 27714 ft | 358 kts | 260° |
| 2026-05-05 17:54 | 45.89257 | -68.73711 | 27907 ft | 358 kts | 260° |
| 2026-05-05 17:55 | 45.88924 | -68.77242 | 28136 ft | 357 kts | 260° |
| 2026-05-05 17:55 | 45.88594 | -68.80767 | 28362 ft | 356 kts | 260° |
| 2026-05-05 17:55 | 45.88265 | -68.84281 | 28576 ft | 355 kts | 260° |
| 2026-05-05 17:55 | 45.87921 | -68.87787 | 28780 ft | 354 kts | 260° |
| 2026-05-05 17:56 | 45.87584 | -68.91289 | 28961 ft | 354 kts | 260° |
| 2026-05-05 17:56 | 45.87260 | -68.94792 | 29166 ft | 354 kts | 260° |
| 2026-05-05 17:56 | 45.86930 | -68.98286 | 29370 ft | 353 kts | 260° |
| 2026-05-05 17:56 | 45.86594 | -69.01778 | 29557 ft | 353 kts | 260° |
| 2026-05-05 17:57 | 45.86256 | -69.05261 | 29734 ft | 352 kts | 260° |
| 2026-05-05 17:57 | 45.85913 | -69.08732 | 29932 ft | 351 kts | 260° |
| 2026-05-05 17:57 | 45.85577 | -69.12197 | 30007 ft | 351 kts | 260° |
| 2026-05-05 17:57 | 45.85245 | -69.15665 | 30157 ft | 351 kts | 260° |
| 2026-05-05 17:58 | 45.84915 | -69.19131 | 30300 ft | 350 kts | 261° |
| 2026-05-05 17:58 | 45.84587 | -69.22589 | 30440 ft | 350 kts | 261° |
| 2026-05-05 17:58 | 45.84258 | -69.26049 | 30573 ft | 350 kts | 260° |
| 2026-05-05 17:58 | 45.83912 | -69.29501 | 30711 ft | 349 kts | 260° |
| 2026-05-05 17:59 | 45.83571 | -69.32945 | 30841 ft | 349 kts | 260° |
| 2026-05-05 17:59 | 45.83221 | -69.36389 | 30979 ft | 349 kts | 260° |
| 2026-05-05 17:59 | 45.82875 | -69.39832 | 31117 ft | 349 kts | 260° |
| 2026-05-05 17:59 | 45.82532 | -69.43274 | 31231 ft | 348 kts | 260° |
| 2026-05-05 18:00 | 45.82188 | -69.46707 | 31383 ft | 348 kts | 260° |
| 2026-05-05 18:00 | 45.81835 | -69.50141 | 31523 ft | 348 kts | 260° |
| 2026-05-05 18:00 | 45.81495 | -69.53565 | 31653 ft | 347 kts | 260° |
| 2026-05-05 18:00 | 45.81150 | -69.56991 | 31783 ft | 347 kts | 260° |
| 2026-05-05 18:01 | 45.80802 | -69.60409 | 31899 ft | 347 kts | 260° |
| 2026-05-05 18:01 | 45.80446 | -69.63831 | 32010 ft | 347 kts | 260° |
| 2026-05-05 18:01 | 45.80093 | -69.67249 | 32134 ft | 347 kts | 260° |
| 2026-05-05 18:01 | 45.79744 | -69.70663 | 32251 ft | 346 kts | 260° |
| 2026-05-05 18:02 | 45.79391 | -69.74077 | 32371 ft | 346 kts | 260° |
| 2026-05-05 18:02 | 45.79037 | -69.77480 | 32483 ft | 346 kts | 260° |
| 2026-05-05 18:02 | 45.78683 | -69.80892 | 32597 ft | 346 kts | 259° |
| 2026-05-05 18:03 | 45.77984 | -69.87707 | 32753 ft | 346 kts | 260° |
| 2026-05-05 18:03 | 45.77649 | -69.91123 | 32856 ft | 346 kts | 260° |
| 2026-05-05 18:03 | 45.77297 | -69.94535 | 32959 ft | 346 kts | 260° |
| 2026-05-05 18:03 | 45.76939 | -69.97937 | 33122 ft | 345 kts | 260° |
| 2026-05-05 18:04 | 45.76590 | -70.01324 | 33269 ft | 343 kts | 261° |
| 2026-05-05 18:04 | 45.76247 | -70.04703 | 33376 ft | 343 kts | 260° |
| 2026-05-05 18:04 | 45.75888 | -70.08076 | 33490 ft | 342 kts | 260° |
| 2026-05-05 18:05 | 45.75177 | -70.14809 | 33667 ft | 342 kts | 260° |
| 2026-05-05 18:05 | 45.74451 | -70.21506 | 33814 ft | 334 kts | 260° |
| 2026-05-05 18:06 | 45.73737 | -70.28040 | 33846 ft | 331 kts | 260° |
| 2026-05-05 18:06 | 45.73040 | -70.34564 | 33846 ft | 332 kts | 260° |
| 2026-05-05 18:07 | 45.72335 | -70.41118 | 33858 ft | 334 kts | 260° |
| 2026-05-05 18:07 | 45.71624 | -70.47692 | 33869 ft | 333 kts | 259° |
| 2026-05-05 18:08 | 45.70889 | -70.54217 | 33853 ft | 331 kts | 259° |
| 2026-05-05 18:08 | 45.70148 | -70.60725 | 33841 ft | 332 kts | 259° |
| 2026-05-05 18:09 | 45.69400 | -70.67269 | 33852 ft | 334 kts | 259° |
| 2026-05-05 18:09 | 45.68653 | -70.73843 | 33854 ft | 336 kts | 259° |
| 2026-05-05 18:10 | 45.67905 | -70.80449 | 33848 ft | 337 kts | 260° |
| 2026-05-05 18:10 | 45.67425 | -70.87087 | 33848 ft | 338 kts | 263° |
| 2026-05-05 18:11 | 45.67044 | -70.93803 | 33848 ft | 339 kts | 262° |
| 2026-05-05 18:11 | 45.66650 | -71.00526 | 33837 ft | 340 kts | 262° |
| 2026-05-05 18:12 | 45.66211 | -71.07253 | 33839 ft | 340 kts | 262° |
| 2026-05-05 18:12 | 45.65770 | -71.13982 | 33831 ft | 340 kts | 262° |
| 2026-05-05 18:13 | 45.65319 | -71.20716 | 33829 ft | 341 kts | 262° |
| 2026-05-05 18:13 | 45.64861 | -71.27457 | 33829 ft | 341 kts | 262° |
| 2026-05-05 18:14 | 45.64409 | -71.34210 | 33827 ft | 341 kts | 261° |
| 2026-05-05 18:14 | 45.63965 | -71.40952 | 33818 ft | 340 kts | 261° |
| 2026-05-05 18:15 | 45.63498 | -71.47672 | 33801 ft | 340 kts | 261° |
| 2026-05-05 18:15 | 45.63025 | -71.54400 | 33789 ft | 340 kts | 261° |
| 2026-05-05 18:16 | 45.62552 | -71.61121 | 33789 ft | 340 kts | 261° |
| 2026-05-05 18:16 | 45.62084 | -71.67844 | 33787 ft | 340 kts | 261° |
| 2026-05-05 18:17 | 45.61617 | -71.74574 | 33818 ft | 340 kts | 261° |
| 2026-05-05 18:17 | 45.61128 | -71.81272 | 33792 ft | 338 kts | 261° |
| 2026-05-05 18:18 | 45.60641 | -71.87936 | 33789 ft | 337 kts | 261° |
| 2026-05-05 18:18 | 45.60152 | -71.94587 | 33789 ft | 337 kts | 261° |
| 2026-05-05 18:19 | 45.59658 | -72.01246 | 33790 ft | 337 kts | 261° |
| 2026-05-05 18:19 | 45.59161 | -72.07898 | 33797 ft | 337 kts | 261° |
| 2026-05-05 18:20 | 45.58664 | -72.14563 | 33863 ft | 339 kts | 261° |
| 2026-05-05 18:20 | 45.58161 | -72.21259 | 33834 ft | 339 kts | 260° |
| 2026-05-05 18:21 | 45.57654 | -72.27924 | 33785 ft | 337 kts | 260° |
| 2026-05-05 18:21 | 45.57153 | -72.34579 | 33793 ft | 338 kts | 262° |
| 2026-05-05 18:22 | 45.56963 | -72.41315 | 33798 ft | 341 kts | 264° |
| 2026-05-05 18:22 | 45.56890 | -72.48099 | 33794 ft | 342 kts | 264° |
| 2026-05-05 18:23 | 45.56786 | -72.54894 | 33791 ft | 342 kts | 264° |
| 2026-05-05 18:23 | 45.56663 | -72.61684 | 33804 ft | 341 kts | 264° |
| 2026-05-05 18:24 | 45.56506 | -72.68430 | 33788 ft | 340 kts | 263° |
| 2026-05-05 18:24 | 45.56348 | -72.75160 | 33785 ft | 339 kts | 263° |
| 2026-05-05 18:25 | 45.56187 | -72.81884 | 33779 ft | 339 kts | 263° |
| 2026-05-05 18:25 | 45.56024 | -72.88605 | 33778 ft | 339 kts | 263° |
| 2026-05-05 18:26 | 45.55856 | -72.95335 | 33773 ft | 339 kts | 263° |
| 2026-05-05 18:26 | 45.55685 | -73.02073 | 33793 ft | 340 kts | 264° |
| 2026-05-05 18:27 | 45.55534 | -73.08818 | 33765 ft | 340 kts | 263° |
| 2026-05-05 18:27 | 45.55348 | -73.15546 | 33743 ft | 338 kts | 263° |
| 2026-05-05 18:28 | 45.55104 | -73.24469 | 33776 ft | 338 kts | 263° |
| 2026-05-05 18:28 | 45.54916 | -73.31182 | 33778 ft | 339 kts | 263° |
| 2026-05-05 18:29 | 45.54693 | -73.39003 | 33782 ft | 340 kts | 263° |
| 2026-05-05 18:29 | 45.54492 | -73.45731 | 33803 ft | 340 kts | 264° |
| 2026-05-05 18:30 | 45.54344 | -73.51370 | 33797 ft | 339 kts | 264° |
| 2026-05-05 18:30 | 45.54179 | -73.58073 | 33777 ft | 338 kts | 264° |
| 2026-05-05 18:31 | 45.53968 | -73.64766 | 33785 ft | 338 kts | 264° |
| 2026-05-05 18:31 | 45.53758 | -73.71460 | 33793 ft | 338 kts | 264° |
| 2026-05-05 18:32 | 45.53547 | -73.78158 | 33642 ft | 341 kts | 264° |
| 2026-05-05 18:32 | 45.53324 | -73.84903 | 33609 ft | 340 kts | 264° |
| 2026-05-05 18:33 | 45.53103 | -73.91623 | 33587 ft | 338 kts | 263° |
| 2026-05-05 18:33 | 45.52876 | -73.98319 | 33528 ft | 337 kts | 263° |
| 2026-05-05 18:34 | 45.52649 | -74.05001 | 33525 ft | 337 kts | 263° |
| 2026-05-05 18:34 | 45.52415 | -74.11672 | 33529 ft | 337 kts | 264° |
| 2026-05-05 18:35 | 45.52182 | -74.18362 | 33553 ft | 338 kts | 263° |
| 2026-05-05 18:35 | 45.51947 | -74.25064 | 33577 ft | 339 kts | 264° |
| 2026-05-05 18:36 | 45.51724 | -74.31777 | 33575 ft | 338 kts | 264° |
| 2026-05-05 18:36 | 45.51473 | -74.38415 | 33563 ft | 337 kts | 264° |
| 2026-05-05 18:37 | 45.51216 | -74.45084 | 33555 ft | 337 kts | 263° |
| 2026-05-05 18:37 | 45.50570 | -74.51660 | 33505 ft | 335 kts | 257° |
| 2026-05-05 18:38 | 45.49647 | -74.58170 | 33508 ft | 335 kts | 257° |
| 2026-05-05 18:38 | 45.48715 | -74.64699 | 33517 ft | 337 kts | 257° |
| 2026-05-05 18:39 | 45.47781 | -74.71212 | 33541 ft | 332 kts | 257° |
| 2026-05-05 18:39 | 45.46876 | -74.77639 | 33514 ft | 330 kts | 257° |
| 2026-05-05 18:40 | 45.45983 | -74.84046 | 33519 ft | 330 kts | 257° |
| 2026-05-05 18:40 | 45.45070 | -74.90451 | 33518 ft | 330 kts | 257° |
| 2026-05-05 18:41 | 45.44146 | -74.96854 | 33522 ft | 330 kts | 257° |
| 2026-05-05 18:41 | 45.43222 | -75.03266 | 33521 ft | 331 kts | 257° |
| 2026-05-05 18:42 | 45.42293 | -75.09633 | 33522 ft | 331 kts | 257° |
| 2026-05-05 18:42 | 45.41372 | -75.15959 | 33538 ft | 322 kts | 259° |
| 2026-05-05 18:43 | 45.40498 | -75.22193 | 33538 ft | 321 kts | 259° |
| 2026-05-05 18:43 | 45.39590 | -75.28431 | 33541 ft | 323 kts | 258° |
| 2026-05-05 18:44 | 45.38660 | -75.34692 | 33539 ft | 324 kts | 258° |
| 2026-05-05 18:44 | 45.37726 | -75.40962 | 33540 ft | 324 kts | 258° |
| 2026-05-05 18:45 | 45.36795 | -75.47238 | 33556 ft | 324 kts | 258° |
| 2026-05-05 18:45 | 45.35870 | -75.53499 | 33562 ft | 323 kts | 258° |
| 2026-05-05 18:46 | 45.34960 | -75.59642 | 33576 ft | 313 kts | 258° |
| 2026-05-05 18:46 | 45.34053 | -75.65675 | 33564 ft | 312 kts | 258° |
| 2026-05-05 18:47 | 45.33145 | -75.71694 | 33565 ft | 312 kts | 258° |
| 2026-05-05 18:47 | 45.32231 | -75.77719 | 33569 ft | 312 kts | 258° |
| 2026-05-05 18:48 | 45.31312 | -75.83758 | 33567 ft | 313 kts | 258° |
| 2026-05-05 18:48 | 45.30389 | -75.89801 | 33566 ft | 313 kts | 258° |
| 2026-05-05 18:49 | 45.29470 | -75.95839 | 33523 ft | 313 kts | 258° |
| 2026-05-05 18:49 | 45.28562 | -76.01902 | 33558 ft | 313 kts | 258° |
| 2026-05-05 18:50 | 45.27637 | -76.07933 | 33554 ft | 312 kts | 258° |
| 2026-05-05 18:50 | 45.26703 | -76.13944 | 33554 ft | 312 kts | 258° |
| 2026-05-05 18:51 | 45.25766 | -76.19954 | 33556 ft | 312 kts | 258° |
| 2026-05-05 18:51 | 45.24659 | -76.25905 | 33567 ft | 313 kts | 251° |
| 2026-05-05 18:52 | 45.22998 | -76.31624 | 33559 ft | 314 kts | 250° |
| 2026-05-05 18:52 | 45.21286 | -76.37318 | 33563 ft | 314 kts | 250° |
| 2026-05-05 18:53 | 45.19574 | -76.42999 | 33597 ft | 310 kts | 250° |
| 2026-05-05 18:53 | 45.17893 | -76.48551 | 33576 ft | 307 kts | 250° |
| 2026-05-05 18:54 | 45.16211 | -76.54107 | 33549 ft | 307 kts | 250° |
| 2026-05-05 18:54 | 45.14518 | -76.59692 | 33568 ft | 310 kts | 250° |
| 2026-05-05 18:55 | 45.12813 | -76.65327 | 33582 ft | 312 kts | 250° |
| 2026-05-05 18:55 | 45.11104 | -76.70990 | 33587 ft | 313 kts | 250° |
| 2026-05-05 18:56 | 45.09400 | -76.76648 | 33584 ft | 312 kts | 250° |
| 2026-05-05 18:56 | 45.07699 | -76.82295 | 33595 ft | 312 kts | 250° |
| 2026-05-05 18:57 | 45.05983 | -76.87923 | 33629 ft | 311 kts | 250° |
| 2026-05-05 18:57 | 45.04287 | -76.93462 | 33603 ft | 304 kts | 250° |
| 2026-05-05 18:58 | 45.02611 | -76.98948 | 33588 ft | 304 kts | 250° |
| 2026-05-05 18:58 | 45.00932 | -77.04444 | 33609 ft | 306 kts | 250° |
| 2026-05-05 18:59 | 44.99245 | -77.09977 | 33618 ft | 307 kts | 250° |
| 2026-05-05 18:59 | 44.97551 | -77.15520 | 33617 ft | 307 kts | 250° |
| 2026-05-05 19:00 | 44.95842 | -77.21039 | 33626 ft | 306 kts | 250° |
| 2026-05-05 19:00 | 44.94136 | -77.26553 | 33626 ft | 306 kts | 250° |
| 2026-05-05 19:01 | 44.92422 | -77.32058 | 33629 ft | 306 kts | 250° |
| 2026-05-05 19:01 | 44.90716 | -77.37564 | 33638 ft | 306 kts | 249° |
| 2026-05-05 19:02 | 44.89002 | -77.43057 | 33645 ft | 306 kts | 249° |
| 2026-05-05 19:02 | 44.87300 | -77.48511 | 33632 ft | 307 kts | 249° |
| 2026-05-05 19:03 | 44.85562 | -77.54076 | 33645 ft | 310 kts | 249° |
| 2026-05-05 19:03 | 44.83811 | -77.59637 | 33643 ft | 311 kts | 249° |
| 2026-05-05 19:04 | 44.82057 | -77.65209 | 33653 ft | 311 kts | 249° |
| 2026-05-05 19:04 | 44.80306 | -77.70761 | 33654 ft | 310 kts | 249° |
| 2026-05-05 19:05 | 44.78550 | -77.76303 | 33653 ft | 310 kts | 249° |
| 2026-05-05 19:05 | 44.76806 | -77.81825 | 33684 ft | 306 kts | 249° |
| 2026-05-05 19:06 | 44.74923 | -77.87188 | 33672 ft | 307 kts | 245° |
| 2026-05-05 19:06 | 44.72798 | -77.92352 | 33660 ft | 307 kts | 245° |
| 2026-05-05 19:07 | 44.70992 | -77.96710 | 33671 ft | 308 kts | 244° |
| 2026-05-05 19:07 | 44.69554 | -78.00161 | 32602 ft | 311 kts | 244° |
| 2026-05-05 19:07 | 44.68452 | -78.02791 | 31792 ft | 314 kts | 243° |
| 2026-05-05 19:08 | 44.67334 | -78.05435 | 31012 ft | 316 kts | 243° |
| 2026-05-05 19:08 | 44.66202 | -78.08108 | 30376 ft | 323 kts | 243° |
| 2026-05-05 19:08 | 44.65052 | -78.10846 | 29903 ft | 327 kts | 242° |
| 2026-05-05 19:08 | 44.63887 | -78.13587 | 29383 ft | 327 kts | 242° |
| 2026-05-05 19:09 | 44.62716 | -78.16332 | 28827 ft | 328 kts | 242° |
| 2026-05-05 19:09 | 44.61543 | -78.19086 | 28290 ft | 330 kts | 242° |
| 2026-05-05 19:09 | 44.60365 | -78.21864 | 27762 ft | 332 kts | 242° |
| 2026-05-05 19:09 | 44.59189 | -78.24658 | 27235 ft | 333 kts | 242° |
| 2026-05-05 19:10 | 44.58009 | -78.27479 | 26679 ft | 338 kts | 242° |
| 2026-05-05 19:10 | 44.56815 | -78.30343 | 26180 ft | 341 kts | 242° |
| 2026-05-05 19:10 | 44.55620 | -78.33223 | 25685 ft | 342 kts | 242° |
| 2026-05-05 19:10 | 44.54406 | -78.36112 | 25205 ft | 345 kts | 241° |
| 2026-05-05 19:11 | 44.53181 | -78.39014 | 24728 ft | 348 kts | 241° |
| 2026-05-05 19:11 | 44.51948 | -78.41942 | 24259 ft | 349 kts | 241° |
| 2026-05-05 19:11 | 44.50720 | -78.44874 | 23787 ft | 350 kts | 240° |
| 2026-05-05 19:11 | 44.49466 | -78.47814 | 23330 ft | 352 kts | 240° |
| 2026-05-05 19:12 | 44.48209 | -78.50756 | 22790 ft | 350 kts | 240° |
| 2026-05-05 19:12 | 44.46965 | -78.53663 | 22253 ft | 346 kts | 240° |
| 2026-05-05 19:12 | 44.45748 | -78.56555 | 21728 ft | 343 kts | 240° |
| 2026-05-05 19:12 | 44.44535 | -78.59407 | 21210 ft | 340 kts | 240° |
| 2026-05-05 19:13 | 44.43329 | -78.62241 | 20696 ft | 337 kts | 240° |
| 2026-05-05 19:13 | 44.42133 | -78.65055 | 20164 ft | 337 kts | 240° |
| 2026-05-05 19:13 | 44.40940 | -78.67861 | 19678 ft | 334 kts | 240° |
| 2026-05-05 19:13 | 44.39767 | -78.70639 | 19213 ft | 329 kts | 241° |
| 2026-05-05 19:14 | 44.38618 | -78.73382 | 18736 ft | 326 kts | 240° |
| 2026-05-05 19:14 | 44.37459 | -78.76103 | 18271 ft | 324 kts | 240° |
| 2026-05-05 19:14 | 44.36309 | -78.78797 | 17762 ft | 321 kts | 240° |
| 2026-05-05 19:14 | 44.35171 | -78.81465 | 17228 ft | 318 kts | 240° |
| 2026-05-05 19:15 | 44.34055 | -78.84102 | 16707 ft | 313 kts | 240° |
| 2026-05-05 19:15 | 44.32967 | -78.86677 | 16189 ft | 302 kts | 240° |
| 2026-05-05 19:15 | 44.31905 | -78.89151 | 15671 ft | 292 kts | 239° |
| 2026-05-05 19:15 | 44.30874 | -78.91544 | 15164 ft | 285 kts | 239° |
| 2026-05-05 19:16 | 44.29865 | -78.93899 | 14657 ft | 280 kts | 239° |
| 2026-05-05 19:16 | 44.29208 | -78.95436 | 14342 ft | 277 kts | 239° |
| 2026-05-05 19:16 | 44.28229 | -78.97731 | 13858 ft | 273 kts | 239° |
| 2026-05-05 19:16 | 44.27253 | -78.99977 | 13373 ft | 269 kts | 238° |
| 2026-05-05 19:17 | 44.26290 | -79.02198 | 12873 ft | 266 kts | 239° |
| 2026-05-05 19:17 | 44.25338 | -79.04398 | 12366 ft | 265 kts | 238° |
| 2026-05-05 19:17 | 44.24301 | -79.06511 | 11884 ft | 263 kts | 232° |
| 2026-05-05 19:17 | 44.23101 | -79.08405 | 11458 ft | 258 kts | 230° |
| 2026-05-05 19:18 | 44.21891 | -79.10245 | 11074 ft | 257 kts | 229° |
| 2026-05-05 19:18 | 44.20668 | -79.12063 | 10680 ft | 257 kts | 229° |
| 2026-05-05 19:18 | 44.19445 | -79.13869 | 10294 ft | 255 kts | 229° |
| 2026-05-05 19:18 | 44.18241 | -79.15661 | 9963 ft | 249 kts | 229° |
| 2026-05-05 19:19 | 44.17093 | -79.17386 | 9660 ft | 237 kts | 229° |
| 2026-05-05 19:19 | 44.15992 | -79.19042 | 9331 ft | 228 kts | 229° |
| 2026-05-05 19:19 | 44.14928 | -79.20634 | 8995 ft | 222 kts | 229° |
| 2026-05-05 19:19 | 44.13891 | -79.22185 | 8682 ft | 216 kts | 230° |
| 2026-05-05 19:20 | 44.12881 | -79.23705 | 8399 ft | 212 kts | 230° |
| 2026-05-05 19:20 | 44.11892 | -79.25197 | 8162 ft | 207 kts | 231° |
| 2026-05-05 19:20 | 44.10932 | -79.26649 | 7977 ft | 200 kts | 230° |
| 2026-05-05 19:20 | 44.10004 | -79.28051 | 7963 ft | 195 kts | 230° |
| 2026-05-05 19:21 | 44.09089 | -79.29440 | 7943 ft | 194 kts | 230° |
| 2026-05-05 19:21 | 44.08182 | -79.30825 | 7930 ft | 193 kts | 231° |
| 2026-05-05 19:21 | 44.07188 | -79.32089 | 7924 ft | 199 kts | 212° |
| 2026-05-05 19:21 | 44.05755 | -79.32372 | 7928 ft | 218 kts | 191° |
| 2026-05-05 19:22 | 44.04206 | -79.32361 | 7607 ft | 226 kts | 190° |
| 2026-05-05 19:22 | 44.02622 | -79.32295 | 7272 ft | 229 kts | 188° |
| 2026-05-05 19:22 | 44.01095 | -79.32523 | 6963 ft | 212 kts | 210° |
| 2026-05-05 19:22 | 43.99770 | -79.33376 | 6732 ft | 211 kts | 212° |
| 2026-05-05 19:23 | 43.98413 | -79.34183 | 6485 ft | 213 kts | 210° |
| 2026-05-05 19:23 | 43.97047 | -79.34946 | 6269 ft | 215 kts | 209° |
| 2026-05-05 19:23 | 43.95633 | -79.35718 | 8042 ft | 214 kts | 212° |
| 2026-05-05 19:23 | 43.94313 | -79.36568 | 7833 ft | 213 kts | 208° |
| 2026-05-05 19:24 | 43.92920 | -79.37254 | 7617 ft | 211 kts | 207° |
| 2026-05-05 19:24 | 43.91524 | -79.37904 | 7358 ft | 213 kts | 206° |
| 2026-05-05 19:24 | 43.90105 | -79.38533 | 7138 ft | 215 kts | 205° |
| 2026-05-05 19:24 | 43.88671 | -79.39152 | 6895 ft | 215 kts | 205° |
| 2026-05-05 19:25 | 43.87210 | -79.39785 | 6327 ft | 226 kts | 205° |
| 2026-05-05 19:25 | 43.85710 | -79.40442 | 5731 ft | 221 kts | 204° |
| 2026-05-05 19:25 | 43.84274 | -79.41086 | 5106 ft | 215 kts | 203° |
| 2026-05-05 19:25 | 43.82855 | -79.41735 | 4497 ft | 214 kts | 201° |
| 2026-05-05 19:26 | 43.81477 | -79.42359 | 3927 ft | 211 kts | 201° |
| 2026-05-05 19:26 | 43.80098 | -79.42964 | 3440 ft | 204 kts | 201° |
| 2026-05-05 19:26 | 43.78916 | -79.43820 | 3151 ft | 181 kts | 227° |
| 2026-05-05 19:26 | 43.77989 | -79.44932 | 3001 ft | 176 kts | 224° |
| 2026-05-05 19:27 | 43.77053 | -79.46009 | 2985 ft | 176 kts | 224° |
| 2026-05-05 19:27 | 43.76159 | -79.47171 | 2962 ft | 174 kts | 229° |
| 2026-05-05 19:27 | 43.75329 | -79.48319 | 2887 ft | 166 kts | 229° |
| 2026-05-05 19:27 | 43.74551 | -79.49473 | 2647 ft | 158 kts | 230° |
| 2026-05-05 19:28 | 43.73833 | -79.50529 | 2436 ft | 145 kts | 231° |
| 2026-05-05 19:28 | 43.73162 | -79.51504 | 2233 ft | 138 kts | 231° |
| 2026-05-05 19:28 | 43.72513 | -79.52471 | 2046 ft | 137 kts | 229° |
| 2026-05-05 19:28 | 43.71868 | -79.53393 | 1901 ft | 131 kts | 232° |
| 2026-05-05 19:29 | 43.71241 | -79.54330 | 1705 ft | 135 kts | 233° |
| 2026-05-05 19:29 | 43.70601 | -79.55250 | 1521 ft | 133 kts | 232° |
| 2026-05-05 19:29 | 43.69952 | -79.56160 | 1336 ft | 132 kts | 228° |
| 2026-05-05 19:29 | 43.69311 | -79.57072 | 1130 ft | 135 kts | 231° |
| 2026-05-05 19:30 | 43.68671 | -79.58032 | 986 ft | 137 kts | 233° |
| 2026-05-05 19:30 | 43.68021 | -79.58994 | 746 ft | 136 kts | 231° |
| 2026-05-05 19:30 | 43.67392 | -79.59917 | 578 ft | 129 kts | 230° |
| 2026-05-05 19:30 | 43.66821 | -79.60751 | 561 ft | 106 kts | 227° |
| 2026-05-05 19:31 | 43.66477 | -79.61261 | 559 ft | 47 kts | 234° |
| 2026-05-05 19:31 | 43.66382 | -79.61589 | 560 ft | 19 kts | 252° |
| 2026-05-05 19:31 | 43.66395 | -79.61718 | 559 ft | 10 kts | 315° |
| 2026-05-05 19:31 | 43.66458 | -79.61802 | 561 ft | 16 kts | 316° |
| 2026-05-05 19:32 | 43.66560 | -79.61932 | 560 ft | 24 kts | 323° |
| 2026-05-05 19:32 | 43.66691 | -79.61819 | 565 ft | 28 kts | 46° |
| 2026-05-05 19:32 | 43.66839 | -79.61604 | 565 ft | 34 kts | 46° |
| 2026-05-05 19:32 | 43.67012 | -79.61352 | 571 ft | 36 kts | 46° |
| 2026-05-05 19:33 | 43.67156 | -79.61151 | 566 ft | 20 kts | 26° |
| 2026-05-05 19:33 | 43.67287 | -79.61272 | 561 ft | 27 kts | 316° |
| 2026-05-05 19:33 | 43.67439 | -79.61475 | 562 ft | 34 kts | 316° |
| 2026-05-05 19:33 | 43.67586 | -79.61664 | 571 ft | 19 kts | 329° |
| 2026-05-05 19:34 | 43.67697 | -79.61589 | 561 ft | 17 kts | 46° |
| 2026-05-05 19:34 | 43.67797 | -79.61604 | 562 ft | 16 kts | 339° |
| 2026-05-05 19:34 | 43.67864 | -79.61630 | 566 ft | 5 kts | 345° |
| 2026-05-05 19:35 | 43.67868 | -79.61632 | 566 ft | 0 kts | 346° |